createdAt,value
2023-04-18T00:02:29.828Z,9.08
2023-04-18T00:05:04.191Z,9.09
2023-04-18T00:07:35.469Z,9.08
2023-04-18T00:10:07.762Z,9.09
2023-04-18T00:12:39.394Z,9.09
2023-04-18T00:15:12.882Z,9.09
2023-04-18T00:17:44.066Z,9.08
2023-04-18T00:20:15.600Z,9.09
2023-04-18T00:22:46.811Z,9.09
2023-04-18T00:25:17.976Z,9.10
2023-04-18T00:27:49.687Z,9.12
2023-04-18T00:30:21.313Z,9.15
2023-04-18T00:32:52.485Z,9.17
2023-04-18T00:35:23.626Z,9.18
2023-04-18T00:37:54.687Z,9.21
2023-04-18T00:40:24.029Z,9.23
2023-04-18T00:42:55.648Z,9.22
2023-04-18T00:45:26.722Z,9.23
2023-04-18T00:47:58.120Z,9.25
2023-04-18T00:50:29.526Z,9.25
2023-04-18T00:53:01.125Z,9.26
2023-04-18T00:55:32.638Z,9.26
2023-04-18T00:58:03.818Z,9.28
2023-04-18T01:00:35.612Z,9.27
2023-04-18T01:03:08.686Z,9.26
2023-04-18T01:05:40.755Z,9.27
2023-04-18T01:08:13.753Z,9.26
2023-04-18T01:10:44.756Z,9.25
2023-04-18T01:13:17.591Z,9.23
2023-04-18T01:15:50.643Z,9.23
2023-04-18T01:18:23.033Z,9.22
2023-04-18T01:20:57.099Z,9.20
2023-04-18T01:23:28.257Z,9.17
2023-04-18T01:25:59.342Z,9.15
2023-04-18T01:28:28.870Z,9.13
2023-04-18T01:30:59.826Z,9.11
2023-04-18T01:33:31.139Z,9.07
2023-04-18T01:36:02.214Z,9.07
2023-04-18T01:38:34.378Z,9.05
2023-04-18T01:41:05.487Z,9.03
2023-04-18T01:43:37.158Z,9.02
2023-04-18T01:46:08.303Z,8.99
2023-04-18T01:48:39.632Z,8.97
2023-04-18T01:51:10.922Z,8.95
2023-04-18T01:53:41.939Z,8.91
2023-04-18T01:56:13.022Z,8.88
2023-04-18T01:58:43.923Z,8.85
2023-04-18T02:01:13.527Z,8.84
2023-04-18T02:03:43.336Z,8.80
2023-04-18T02:06:14.675Z,8.76
2023-04-18T02:08:44.013Z,8.75
2023-04-18T02:11:14.915Z,8.72
2023-04-18T02:13:46.626Z,8.70
2023-04-18T02:16:17.637Z,8.68
2023-04-18T02:18:52.503Z,8.67
2023-04-18T02:21:24.574Z,8.66
2023-04-18T02:23:55.712Z,8.65
2023-04-18T02:26:25.323Z,8.64
2023-04-18T02:28:56.666Z,8.62
2023-04-18T02:31:27.820Z,8.61
2023-04-18T02:33:58.869Z,8.60
2023-04-18T02:36:28.716Z,8.60
2023-04-18T02:38:58.251Z,8.58
2023-04-18T02:41:27.800Z,8.56
2023-04-18T02:44:00.172Z,8.54
2023-04-18T02:46:31.133Z,8.52
2023-04-18T02:49:02.248Z,8.53
2023-04-18T02:51:32.218Z,8.52
2023-04-18T02:54:03.184Z,8.50
2023-04-18T02:56:32.670Z,8.50
2023-04-18T02:59:03.572Z,8.50
2023-04-18T03:01:33.275Z,8.50
2023-04-18T03:04:04.284Z,8.49
2023-04-18T03:06:33.676Z,8.49
2023-04-18T03:09:04.886Z,8.49
2023-04-18T03:11:35.835Z,8.50
2023-04-18T03:14:06.787Z,8.51
2023-04-18T03:16:36.236Z,8.51
2023-04-18T03:19:07.346Z,8.49
2023-04-18T03:21:38.287Z,8.48
2023-04-18T03:24:11.587Z,8.48
2023-04-18T03:26:43.419Z,8.46
2023-04-18T03:29:14.497Z,8.45
2023-04-18T03:31:46.191Z,8.46
2023-04-18T03:34:17.478Z,8.47
2023-04-18T03:36:48.650Z,8.47
2023-04-18T03:39:19.782Z,8.49
2023-04-18T03:41:52.238Z,8.49
2023-04-18T03:44:23.384Z,8.49
2023-04-18T03:46:56.180Z,8.47
2023-04-18T03:49:27.370Z,8.46
2023-04-18T03:51:58.562Z,8.46
2023-04-18T03:54:29.807Z,8.46
2023-04-18T03:57:01.164Z,8.45
2023-04-18T03:59:32.361Z,8.43
2023-04-18T04:02:03.298Z,8.42
2023-04-18T04:04:34.737Z,8.39
2023-04-18T04:07:06.268Z,8.35
2023-04-18T04:09:37.501Z,8.32
2023-04-18T04:12:09.351Z,8.30
2023-04-18T04:14:40.892Z,8.28
2023-04-18T04:17:12.259Z,8.23
2023-04-18T04:19:43.156Z,8.18
2023-04-18T04:22:12.812Z,8.15
2023-04-18T04:24:43.904Z,8.10
2023-04-18T04:27:15.082Z,8.08
2023-04-18T04:29:46.101Z,8.06
2023-04-18T04:32:17.384Z,8.07
2023-04-18T04:34:49.505Z,8.08
2023-04-18T04:37:21.551Z,8.11
2023-04-18T04:39:52.823Z,8.14
2023-04-18T04:42:25.714Z,8.14
2023-04-18T04:44:57.266Z,8.14
2023-04-18T04:47:28.596Z,8.13
2023-04-18T04:49:59.703Z,8.12
2023-04-18T04:52:32.439Z,8.12
2023-04-18T04:55:03.522Z,8.11
2023-04-18T04:57:34.630Z,8.11
2023-04-18T05:00:06.131Z,8.10
2023-04-18T05:02:37.476Z,8.09
2023-04-18T05:05:09.917Z,8.08
2023-04-18T05:07:41.400Z,8.06
2023-04-18T05:10:13.516Z,8.06
2023-04-18T05:12:44.509Z,8.07
2023-04-18T05:15:17.664Z,8.06
2023-04-18T05:17:48.648Z,8.07
2023-04-18T05:20:18.166Z,8.09
2023-04-18T05:22:49.258Z,8.09
2023-04-18T05:25:21.241Z,8.11
2023-04-18T05:27:53.199Z,8.14
2023-04-18T05:30:24.691Z,8.19
2023-04-18T05:32:55.868Z,8.25
2023-04-18T05:35:27.104Z,8.31
2023-04-18T05:37:56.467Z,8.36
2023-04-18T05:40:28.438Z,8.37
2023-04-18T05:42:59.655Z,8.41
2023-04-18T05:45:30.589Z,8.44
2023-04-18T05:48:01.699Z,8.48
2023-04-18T05:50:34.221Z,8.51
2023-04-18T05:53:03.667Z,8.55
2023-04-18T05:55:35.280Z,8.58
2023-04-18T05:58:06.659Z,8.63
2023-04-18T06:00:37.900Z,8.66
2023-04-18T06:03:10.816Z,8.68
2023-04-18T06:05:42.639Z,8.72
2023-04-18T06:08:13.875Z,8.73
2023-04-18T06:10:45.110Z,8.75
2023-04-18T06:13:16.365Z,8.76
2023-04-18T06:15:47.347Z,8.78
2023-04-18T06:18:18.605Z,8.78
2023-04-18T06:20:47.989Z,8.79
2023-04-18T06:23:19.000Z,8.77
2023-04-18T06:25:50.134Z,8.77
2023-04-18T06:28:19.586Z,8.76
2023-04-18T06:30:50.700Z,8.74
2023-04-18T06:33:21.800Z,8.71
2023-04-18T06:35:52.932Z,8.70
2023-04-18T06:38:22.276Z,8.70
2023-04-18T06:40:53.490Z,8.69
2023-04-18T06:43:24.667Z,8.72
2023-04-18T06:45:56.738Z,8.73
2023-04-18T06:48:27.971Z,8.72
2023-04-18T06:50:58.980Z,8.74
2023-04-18T06:53:28.525Z,8.77
2023-04-18T06:55:59.871Z,8.77
2023-04-18T06:58:31.186Z,8.79
2023-04-18T07:01:00.601Z,8.81
2023-04-18T07:03:34.078Z,8.78
2023-04-18T07:06:06.036Z,8.76
2023-04-18T07:08:37.125Z,8.77
2023-04-18T07:11:08.319Z,8.78
2023-04-18T07:13:39.381Z,8.80
2023-04-18T07:16:12.202Z,8.84
2023-04-18T07:18:43.191Z,8.89
2023-04-18T07:21:14.519Z,8.93
2023-04-18T07:23:45.756Z,8.96
2023-04-18T07:26:16.878Z,8.97
2023-04-18T07:28:48.068Z,9.00
2023-04-18T07:31:19.609Z,9.02
2023-04-18T07:33:51.328Z,9.06
2023-04-18T07:36:22.684Z,9.12
2023-04-18T07:38:53.887Z,9.22
2023-04-18T07:41:24.994Z,9.31
2023-04-18T07:43:56.409Z,9.39
2023-04-18T07:46:27.869Z,9.45
2023-04-18T07:48:59.094Z,9.53
2023-04-18T07:51:31.938Z,9.60
2023-04-18T07:54:03.670Z,9.65
2023-04-18T07:56:34.988Z,9.71
2023-04-18T07:59:07.224Z,9.73
2023-04-18T08:01:38.390Z,9.75
2023-04-18T08:04:10.240Z,9.83
2023-04-18T08:06:41.448Z,9.90
2023-04-18T08:09:12.624Z,10.00
2023-04-18T08:11:45.181Z,10.12
2023-04-18T08:14:16.520Z,10.21
2023-04-18T08:16:47.734Z,10.29
2023-04-18T08:19:18.674Z,10.33
2023-04-18T08:21:51.577Z,10.39
2023-04-18T08:24:22.542Z,10.45
2023-04-18T08:26:53.815Z,10.53
2023-04-18T08:29:24.626Z,10.56
2023-04-18T08:31:56.113Z,10.56
2023-04-18T08:34:28.963Z,10.54
2023-04-18T08:37:00.276Z,10.44
2023-04-18T08:39:31.902Z,10.29
2023-04-18T08:42:03.397Z,10.21
2023-04-18T08:44:35.104Z,10.14
2023-04-18T08:47:08.993Z,10.07
2023-04-18T08:49:40.118Z,10.06
2023-04-18T08:52:12.530Z,10.04
2023-04-18T08:54:47.011Z,10.01
2023-04-18T08:57:23.770Z,10.00
2023-04-18T08:59:56.876Z,10.06
2023-04-18T09:02:42.941Z,10.09
2023-04-18T09:05:17.616Z,10.17
2023-04-18T09:07:50.582Z,10.22
2023-04-18T09:10:32.711Z,10.21
2023-04-18T09:13:04.833Z,10.21
2023-04-18T09:15:35.926Z,10.24
2023-04-18T09:18:12.179Z,10.33
2023-04-18T09:20:44.746Z,10.38
2023-04-18T09:23:23.454Z,10.49
2023-04-18T09:25:54.684Z,10.59
2023-04-18T09:28:29.180Z,10.63
2023-04-18T09:31:09.217Z,10.66
2023-04-18T09:33:43.168Z,10.66
2023-04-18T09:36:22.956Z,10.70
2023-04-18T09:38:56.605Z,10.73
2023-04-18T09:41:30.580Z,10.74
2023-04-18T09:44:14.944Z,10.78
2023-04-18T09:46:47.597Z,10.83
2023-04-18T09:49:18.958Z,10.89
2023-04-18T09:51:54.682Z,10.97
2023-04-18T09:54:26.770Z,11.00
2023-04-18T09:56:58.914Z,10.99
2023-04-18T09:59:43.069Z,10.98
2023-04-18T10:02:22.198Z,10.92
2023-04-18T10:04:55.606Z,10.93
2023-04-18T10:07:28.366Z,10.92
2023-04-18T10:09:59.476Z,10.93
2023-04-18T10:12:31.382Z,10.94
2023-04-18T10:15:03.214Z,10.94
2023-04-18T10:17:56.246Z,10.99
2023-04-18T10:20:35.121Z,11.07
2023-04-18T10:23:38.623Z,11.16
2023-04-18T10:26:11.738Z,11.27
2023-04-18T10:28:56.936Z,11.36
2023-04-18T10:31:39.743Z,11.38
2023-04-18T10:34:17.601Z,11.38
2023-04-18T10:37:07.970Z,11.30
2023-04-18T10:39:56.978Z,11.23
2023-04-18T10:42:58.301Z,11.21
2023-04-18T10:45:36.574Z,11.13
2023-04-18T10:48:25.449Z,11.09
2023-04-18T10:51:15.747Z,11.06
2023-04-18T10:53:53.180Z,11.10
2023-04-18T10:56:26.302Z,11.19
2023-04-18T10:59:01.847Z,11.24
2023-04-18T11:01:36.395Z,11.23
2023-04-18T11:04:14.523Z,11.15
2023-04-18T11:06:53.254Z,11.12
2023-04-18T11:09:24.570Z,11.08
2023-04-18T11:12:08.448Z,11.13
2023-04-18T11:14:46.309Z,11.19
2023-04-18T11:17:23.615Z,11.19
2023-04-18T11:20:05.988Z,11.22
2023-04-18T11:22:46.931Z,11.30
2023-04-18T11:25:18.956Z,11.42
2023-04-18T11:27:51.931Z,11.57
2023-04-18T11:30:22.870Z,11.66
2023-04-18T11:32:54.385Z,11.66
2023-04-18T11:35:25.931Z,11.68
2023-04-18T11:37:57.375Z,11.71
2023-04-18T11:40:28.540Z,11.77
2023-04-18T11:43:01.857Z,11.84
2023-04-18T11:45:33.294Z,11.92
2023-04-18T11:48:04.681Z,11.95
2023-04-18T11:50:38.623Z,12.00
2023-04-18T11:53:09.950Z,12.08
2023-04-18T11:55:40.986Z,12.21
2023-04-18T11:58:12.122Z,12.38
2023-04-18T12:00:43.329Z,12.51
2023-04-18T12:03:19.452Z,12.55
2023-04-18T12:05:59.648Z,12.68
2023-04-18T12:08:32.403Z,12.74
2023-04-18T12:11:03.555Z,12.76
2023-04-18T12:13:36.004Z,12.76
2023-04-18T12:16:08.193Z,12.79
2023-04-18T12:18:41.978Z,12.70
2023-04-18T12:21:14.072Z,12.49
2023-04-18T12:23:46.154Z,12.41
2023-04-18T12:26:18.772Z,12.36
2023-04-18T12:28:53.945Z,12.42
2023-04-18T12:31:25.159Z,12.49
2023-04-18T12:33:56.277Z,12.46
2023-04-18T12:36:28.539Z,12.39
2023-04-18T12:38:59.742Z,12.37
2023-04-18T12:41:31.209Z,12.35
2023-04-18T12:44:02.661Z,12.31
2023-04-18T12:46:34.030Z,12.32
2023-04-18T12:49:05.324Z,12.43
2023-04-18T12:51:36.392Z,12.57
2023-04-18T12:54:07.790Z,12.67
2023-04-18T12:56:38.787Z,12.65
2023-04-18T12:59:09.619Z,12.70
2023-04-18T13:01:38.921Z,12.70
2023-04-18T13:04:12.819Z,12.64
2023-04-18T13:06:44.478Z,12.56
2023-04-18T13:09:16.772Z,12.40
2023-04-18T13:11:49.552Z,12.23
2023-04-18T13:14:21.414Z,12.07
2023-04-18T13:16:52.445Z,11.94
2023-04-18T13:19:23.704Z,11.81
2023-04-18T13:21:55.882Z,11.78
2023-04-18T13:24:27.094Z,11.79
2023-04-18T13:26:58.341Z,11.87
2023-04-18T13:29:29.661Z,11.99
2023-04-18T13:32:00.566Z,12.12
2023-04-18T13:34:32.264Z,12.30
2023-04-18T13:37:03.752Z,12.44
2023-04-18T13:39:35.602Z,12.51
2023-04-18T13:42:07.831Z,12.61
2023-04-18T13:44:39.690Z,12.70
2023-04-18T13:47:11.016Z,12.76
2023-04-18T13:49:42.239Z,12.77
2023-04-18T13:52:13.587Z,12.69
2023-04-18T13:54:44.552Z,12.79
2023-04-18T13:57:15.878Z,12.77
2023-04-18T13:59:47.196Z,12.64
2023-04-18T14:02:18.389Z,12.47
2023-04-18T14:04:49.630Z,12.43
2023-04-18T14:07:20.717Z,12.45
2023-04-18T14:09:53.741Z,12.40
2023-04-18T14:12:25.180Z,12.50
2023-04-18T14:14:56.378Z,12.72
2023-04-18T14:17:28.120Z,12.82
2023-04-18T14:19:59.213Z,12.80
2023-04-18T14:22:30.308Z,12.78
2023-04-18T14:25:01.783Z,12.84
2023-04-18T14:27:33.103Z,12.93
2023-04-18T14:30:06.692Z,12.92
2023-04-18T14:32:37.875Z,12.95
2023-04-18T14:35:11.186Z,13.07
2023-04-18T14:37:42.271Z,13.03
2023-04-18T14:40:14.803Z,13.10
2023-04-18T14:42:47.167Z,13.29
2023-04-18T14:45:18.677Z,13.45
2023-04-18T14:47:49.977Z,13.43
2023-04-18T14:50:24.222Z,13.47
2023-04-18T14:52:55.689Z,13.37
2023-04-18T14:55:27.036Z,13.26
2023-04-18T14:57:58.099Z,13.11
2023-04-18T15:00:29.682Z,13.10
2023-04-18T15:03:01.231Z,13.01
2023-04-18T15:05:32.853Z,12.87
2023-04-18T15:08:04.601Z,12.66
2023-04-18T15:10:36.057Z,12.44
2023-04-18T15:13:07.063Z,12.17
2023-04-18T15:15:39.680Z,12.07
2023-04-18T15:18:11.322Z,12.05
2023-04-18T15:20:42.371Z,11.89
2023-04-18T15:23:14.303Z,11.70
2023-04-18T15:25:46.932Z,11.63
2023-04-18T15:28:18.919Z,11.54
2023-04-18T15:30:49.805Z,11.58
2023-04-18T15:33:21.141Z,11.58
2023-04-18T15:35:52.415Z,11.66
2023-04-18T15:38:23.386Z,11.77
2023-04-18T15:40:54.365Z,11.85
2023-04-18T15:43:25.559Z,11.94
2023-04-18T15:45:56.723Z,12.01
2023-04-18T15:48:28.677Z,12.09
2023-04-18T15:51:00.000Z,12.10
2023-04-18T15:53:31.308Z,12.14
2023-04-18T15:56:02.375Z,12.20
2023-04-18T15:58:33.308Z,12.18
2023-04-18T16:01:04.857Z,12.16
2023-04-18T16:03:36.309Z,12.10
2023-04-18T16:06:08.020Z,12.01
2023-04-18T16:08:39.747Z,11.90
2023-04-18T16:11:11.289Z,11.84
2023-04-18T16:13:42.279Z,11.76
2023-04-18T16:16:13.439Z,11.66
2023-04-18T16:18:45.017Z,11.52
2023-04-18T16:21:17.509Z,11.40
2023-04-18T16:23:49.343Z,11.25
2023-04-18T16:26:20.318Z,11.11
2023-04-18T16:28:51.572Z,11.02
2023-04-18T16:31:22.592Z,10.98
2023-04-18T16:33:53.752Z,10.95
2023-04-18T16:36:26.070Z,10.91
2023-04-18T16:38:57.573Z,10.91
2023-04-18T16:41:28.558Z,10.92
2023-04-18T16:43:59.570Z,10.93
2023-04-18T16:46:32.438Z,10.91
2023-04-18T16:49:03.596Z,10.92
2023-04-18T16:51:36.295Z,11.00
2023-04-18T16:54:08.662Z,11.04
2023-04-18T16:56:39.675Z,11.12
2023-04-18T16:59:10.828Z,11.10
2023-04-18T17:01:41.933Z,11.06
2023-04-18T17:04:13.260Z,10.99
2023-04-18T17:06:44.775Z,10.90
2023-04-18T17:09:16.349Z,10.80
2023-04-18T17:11:50.664Z,10.74
2023-04-18T17:14:21.908Z,10.68
2023-04-18T17:16:53.737Z,10.63
2023-04-18T17:19:26.308Z,10.56
2023-04-18T17:21:57.318Z,10.48
2023-04-18T17:24:28.514Z,10.45
2023-04-18T17:27:01.343Z,10.44
2023-04-18T17:29:32.764Z,10.42
2023-04-18T17:32:04.199Z,10.41
2023-04-18T17:34:35.358Z,10.40
2023-04-18T17:37:06.510Z,10.42
2023-04-18T17:39:37.778Z,10.40
2023-04-18T17:42:08.965Z,10.39
2023-04-18T17:44:40.078Z,10.39
2023-04-18T17:47:11.237Z,10.36
2023-04-18T17:49:42.269Z,10.33
2023-04-18T17:52:13.649Z,10.30
2023-04-18T17:54:44.883Z,10.26
2023-04-18T17:57:16.729Z,10.21
2023-04-18T17:59:47.812Z,10.17
2023-04-18T18:02:19.031Z,10.13
2023-04-18T18:04:51.466Z,10.10
2023-04-18T18:07:22.981Z,10.08
2023-04-18T18:09:54.341Z,10.06
2023-04-18T18:12:26.368Z,10.04
2023-04-18T18:14:58.394Z,10.02
2023-04-18T18:17:30.359Z,10.00
2023-04-18T18:20:01.401Z,10.00
2023-04-18T18:22:33.534Z,9.98
2023-04-18T18:25:05.206Z,9.93
2023-04-18T18:27:36.677Z,9.93
2023-04-18T18:30:10.116Z,9.93
2023-04-18T18:32:41.340Z,9.91
2023-04-18T18:35:13.422Z,9.92
2023-04-18T18:37:44.811Z,9.92
2023-04-18T18:40:16.569Z,9.92
2023-04-18T18:42:49.439Z,9.93
2023-04-18T18:45:21.255Z,9.92
2023-04-18T18:47:52.464Z,9.92
2023-04-18T18:50:23.752Z,9.92
2023-04-18T18:52:54.878Z,9.91
2023-04-18T18:55:26.475Z,9.93
2023-04-18T18:57:57.922Z,9.94
2023-04-18T19:00:30.256Z,9.93
2023-04-18T19:03:02.034Z,9.90
2023-04-18T19:05:33.774Z,9.92
2023-04-18T19:08:06.617Z,9.90
2023-04-18T19:10:38.019Z,9.90
2023-04-18T19:13:09.275Z,9.92
2023-04-18T19:15:40.666Z,9.95
2023-04-18T19:18:12.497Z,9.97
2023-04-18T19:20:43.568Z,10.00
2023-04-18T19:23:14.822Z,10.03
2023-04-18T19:25:46.345Z,10.05
2023-04-18T19:28:18.466Z,10.06
2023-04-18T19:30:49.522Z,10.10
2023-04-18T19:33:21.299Z,10.13
2023-04-18T19:35:52.418Z,10.16
2023-04-18T19:38:23.891Z,10.20
2023-04-18T19:40:55.241Z,10.26
2023-04-18T19:43:26.633Z,10.31
2023-04-18T19:45:57.718Z,10.33
2023-04-18T19:48:29.947Z,10.34
2023-04-18T19:51:01.604Z,10.35
2023-04-18T19:53:33.666Z,10.35
2023-04-18T19:56:05.096Z,10.32
2023-04-18T19:58:44.966Z,10.32
2023-04-18T20:01:17.183Z,10.32
2023-04-18T20:03:48.929Z,10.33
2023-04-18T20:06:20.465Z,10.31
2023-04-18T20:08:51.596Z,10.31
2023-04-18T20:11:25.948Z,10.30
2023-04-18T20:13:59.369Z,10.30
2023-04-18T20:16:30.658Z,10.29
2023-04-18T20:19:01.821Z,10.27
2023-04-18T20:21:32.880Z,10.25
2023-04-18T20:24:02.168Z,10.22
2023-04-18T20:26:33.245Z,10.19
2023-04-18T20:29:05.007Z,10.16
2023-04-18T20:31:37.817Z,10.13
2023-04-18T20:34:09.893Z,10.11
2023-04-18T20:36:42.457Z,10.06
2023-04-18T20:39:14.020Z,10.04
2023-04-18T20:41:48.541Z,10.03
2023-04-18T20:44:21.047Z,10.02
2023-04-18T20:46:53.372Z,10.02
2023-04-18T20:49:24.330Z,10.01
2023-04-18T20:51:55.615Z,10.00
2023-04-18T20:54:26.946Z,10.00
2023-04-18T20:56:58.407Z,9.98
2023-04-18T20:59:31.482Z,9.93
2023-04-18T21:02:02.673Z,9.91
2023-04-18T21:04:33.964Z,9.87
2023-04-18T21:07:05.092Z,9.87
2023-04-18T21:09:37.455Z,9.88
2023-04-18T21:12:09.146Z,9.89
2023-04-18T21:14:40.494Z,9.87
2023-04-18T21:17:17.146Z,9.86
2023-04-18T21:19:49.596Z,9.85
2023-04-18T21:22:21.086Z,9.84
2023-04-18T21:24:52.298Z,9.84
2023-04-18T21:27:23.638Z,9.86
2023-04-18T21:29:54.976Z,9.89
2023-04-18T21:32:26.606Z,9.93
2023-04-18T21:34:58.030Z,9.98
2023-04-18T21:37:29.091Z,10.02
2023-04-18T21:40:00.563Z,10.06
2023-04-18T21:42:31.798Z,10.06
2023-04-18T21:45:02.890Z,10.10
2023-04-18T21:47:36.095Z,10.11
2023-04-18T21:50:09.104Z,10.13
2023-04-18T21:52:40.240Z,10.15
2023-04-18T21:55:12.224Z,10.17
2023-04-18T21:57:43.322Z,10.19
2023-04-18T22:00:16.610Z,10.21
2023-04-18T22:02:47.940Z,10.22
2023-04-18T22:05:20.193Z,10.23
2023-04-18T22:07:58.010Z,10.21
2023-04-18T22:10:30.049Z,10.19
2023-04-18T22:13:01.341Z,10.17
2023-04-18T22:15:33.038Z,10.18
2023-04-18T22:18:05.423Z,10.17
2023-04-18T22:20:37.459Z,10.17
2023-04-18T22:23:08.551Z,10.18
2023-04-18T22:25:39.869Z,10.18
2023-04-18T22:28:11.014Z,10.17
2023-04-18T22:30:42.384Z,10.14
2023-04-18T22:33:13.721Z,10.12
2023-04-18T22:35:45.306Z,10.09
2023-04-18T22:38:16.366Z,10.08
2023-04-18T22:40:47.488Z,10.07
2023-04-18T22:43:22.848Z,10.06
2023-04-18T22:45:54.298Z,10.06
2023-04-18T22:48:25.514Z,10.07
2023-04-18T22:50:56.738Z,10.07
2023-04-18T22:53:28.084Z,10.05
2023-04-18T22:55:59.974Z,10.02
2023-04-18T22:58:31.634Z,10.02
2023-04-18T23:01:03.158Z,10.01
2023-04-18T23:03:35.791Z,10.01
2023-04-18T23:06:09.277Z,10.00
2023-04-18T23:08:40.427Z,10.00
2023-04-18T23:11:11.641Z,9.98
2023-04-18T23:13:42.547Z,9.98
2023-04-18T23:16:13.717Z,9.99
2023-04-18T23:18:44.927Z,9.99
2023-04-18T23:21:17.618Z,10.02
2023-04-18T23:23:48.645Z,10.03
2023-04-18T23:26:19.780Z,10.04
2023-04-18T23:28:50.977Z,10.04
2023-04-18T23:31:22.277Z,10.05
2023-04-18T23:33:53.359Z,10.07
2023-04-18T23:36:24.442Z,10.07
2023-04-18T23:38:55.759Z,10.07
2023-04-18T23:41:26.753Z,10.06
2023-04-18T23:43:57.927Z,10.03
2023-04-18T23:46:29.195Z,9.99
2023-04-18T23:49:00.280Z,9.95
2023-04-18T23:51:29.509Z,9.91
2023-04-18T23:54:03.257Z,9.84
2023-04-18T23:56:35.203Z,9.76
2023-04-18T23:59:06.337Z,9.70
